Hauptseite
METAR-TAF:

METAR-TAF

Flughäfen :

Flughafen Lusaka

Lusaka, Sambia

Breite: 15-19-51S, Länge: 028-27-09E, Höhe: 1152 m

Beobachtung

Neuester Wetterbericht von vor 1 Stunde und 12 Minuten, um 03:00 UTC
Wind 3 kt aus Süd/Südost
Temperatur 11°C
Luftfeuchtigkeit 87%
Luftdruck 1024 hPa
Sichtweite 10 km oder mehr
keine Wolken unter 1500 m und keine Kumulonimbus oder Gewitterwolken

METAR: FLKK 230300Z 15003KT CAVOK 11/09 Q1024

Zeit: 06:12 (04:12 UTC)


TAF: fehlend

Wetterbeobachtungen und Prognosen von mehr als 4000 Flughäfen (METAR und TAF Bericht).

Die verfügbaren Stationen werden durch gelbe und rote Markierungen auf der Karte dargestellt.

Führen Sie die Maus auf sie, um den Namen der Station zu sehen.

Darauf klicken, um die Beobachtung von Wetterbeobachtungen und Prognosen zu sehen.

Um die Karte zu ändern : klicken Sie auf den grünen Tasten mit einem schwarzen Kreuz Zum Vergrößern, auf den grünen Button mit einem Gedankenstrich zu verkleinern, oder auf die grünen Pfeile für benachbarte Karten.


METAR-TAF: